sensor_id;sensor_type;location;lat;lon;timestamp;pressure;altitude;pressure_sealevel;temperature;humidity
1401;BME280;46518;48.842;8.926;2023-07-13T00:01:14;97116.03;;;19.64;54.43
1401;BME280;46518;48.842;8.926;2023-07-13T00:03:44;97111.91;;;19.57;55.14
1401;BME280;46518;48.842;8.926;2023-07-13T00:06:12;97103.84;;;19.49;54.86
1401;BME280;46518;48.842;8.926;2023-07-13T00:08:40;97114.34;;;19.45;55.02
1401;BME280;46518;48.842;8.926;2023-07-13T00:11:12;97116.81;;;19.42;54.89
1401;BME280;46518;48.842;8.926;2023-07-13T00:13:40;97109.41;;;19.38;55.33
1401;BME280;46518;48.842;8.926;2023-07-13T00:16:10;97106.84;;;19.33;54.96
1401;BME280;46518;48.842;8.926;2023-07-13T00:18:39;97096.38;;;19.37;54.94
1401;BME280;46518;48.842;8.926;2023-07-13T00:21:08;97086.78;;;19.36;54.98
1401;BME280;46518;48.842;8.926;2023-07-13T00:23:39;97100.53;;;19.29;54.50
1401;BME280;46518;48.842;8.926;2023-07-13T00:26:09;97104.72;;;19.22;55.12
1401;BME280;46518;48.842;8.926;2023-07-13T00:28:38;97095.63;;;19.23;54.77
1401;BME280;46518;48.842;8.926;2023-07-13T00:31:09;97101.25;;;19.21;54.64
1401;BME280;46518;48.842;8.926;2023-07-13T00:33:37;97097.03;;;19.20;54.90
1401;BME280;46518;48.842;8.926;2023-07-13T00:36:05;97091.50;;;19.16;55.35
1401;BME280;46518;48.842;8.926;2023-07-13T00:38:36;97089.03;;;19.06;55.19
1401;BME280;46518;48.842;8.926;2023-07-13T00:41:04;97085.00;;;19.09;55.11
1401;BME280;46518;48.842;8.926;2023-07-13T00:43:33;97083.91;;;19.10;54.95
1401;BME280;46518;48.842;8.926;2023-07-13T00:46:22;97083.81;;;19.01;55.56
1401;BME280;46518;48.842;8.926;2023-07-13T00:48:53;97081.75;;;18.98;55.66
1401;BME280;46518;48.842;8.926;2023-07-13T00:51:26;97077.31;;;19.07;55.21
1401;BME280;46518;48.842;8.926;2023-07-13T00:54:00;97079.59;;;19.00;55.81
1401;BME280;46518;48.842;8.926;2023-07-13T00:56:32;97088.56;;;19.04;55.19
1401;BME280;46518;48.842;8.926;2023-07-13T00:59:03;97090.75;;;19.02;54.83
1401;BME280;46518;48.842;8.926;2023-07-13T01:01:32;97080.88;;;19.03;55.08
1401;BME280;46518;48.842;8.926;2023-07-13T01:04:00;97075.44;;;18.94;55.00
1401;BME280;46518;48.842;8.926;2023-07-13T01:06:29;97089.38;;;19.05;55.00
1401;BME280;46518;48.842;8.926;2023-07-13T01:09:00;97085.72;;;19.01;54.91
1401;BME280;46518;48.842;8.926;2023-07-13T01:11:30;97085.22;;;18.99;55.19
1401;BME280;46518;48.842;8.926;2023-07-13T01:13:58;97093.94;;;18.90;55.11
1401;BME280;46518;48.842;8.926;2023-07-13T01:16:30;97099.16;;;18.95;55.17
1401;BME280;46518;48.842;8.926;2023-07-13T01:18:59;97095.31;;;18.88;55.37
1401;BME280;46518;48.842;8.926;2023-07-13T01:21:32;97097.09;;;18.79;55.68
1401;BME280;46518;48.842;8.926;2023-07-13T01:24:00;97101.94;;;18.63;55.99
1401;BME280;46518;48.842;8.926;2023-07-13T01:26:28;97094.63;;;18.68;55.99
1401;BME280;46518;48.842;8.926;2023-07-13T01:28:57;97087.22;;;18.65;56.10
1401;BME280;46518;48.842;8.926;2023-07-13T01:31:25;97090.97;;;18.64;56.06
1401;BME280;46518;48.842;8.926;2023-07-13T01:33:54;97092.56;;;18.51;56.47
1401;BME280;46518;48.842;8.926;2023-07-13T01:36:23;97097.00;;;18.56;56.81
1401;BME280;46518;48.842;8.926;2023-07-13T01:38:53;97092.06;;;18.49;56.60
1401;BME280;46518;48.842;8.926;2023-07-13T01:41:21;97091.38;;;18.44;56.75
1401;BME280;46518;48.842;8.926;2023-07-13T01:43:49;97098.19;;;18.36;57.54
1401;BME280;46518;48.842;8.926;2023-07-13T01:46:17;97093.66;;;18.23;57.96
1401;BME280;46518;48.842;8.926;2023-07-13T01:48:50;97090.88;;;18.14;57.69
1401;BME280;46518;48.842;8.926;2023-07-13T01:51:20;97091.38;;;18.16;58.04
1401;BME280;46518;48.842;8.926;2023-07-13T01:53:48;97089.19;;;18.18;58.06
1401;BME280;46518;48.842;8.926;2023-07-13T01:56:18;97093.56;;;18.28;57.71
1401;BME280;46518;48.842;8.926;2023-07-13T01:58:46;97094.16;;;18.25;57.13
1401;BME280;46518;48.842;8.926;2023-07-13T02:01:15;97093.66;;;18.23;57.29
1401;BME280;46518;48.842;8.926;2023-07-13T02:03:43;97094.94;;;18.25;57.63
1401;BME280;46518;48.842;8.926;2023-07-13T02:06:11;97094.94;;;18.25;57.42
1401;BME280;46518;48.842;8.926;2023-07-13T02:08:40;97099.47;;;18.25;57.47
1401;BME280;46518;48.842;8.926;2023-07-13T02:11:08;97098.06;;;18.14;57.68
1401;BME280;46518;48.842;8.926;2023-07-13T02:13:38;97096.69;;;18.16;57.85
1401;BME280;46518;48.842;8.926;2023-07-13T02:16:06;97096.31;;;18.23;58.38
1401;BME280;46518;48.842;8.926;2023-07-13T02:18:35;97096.31;;;18.23;57.86
1401;BME280;46518;48.842;8.926;2023-07-13T02:21:03;97091.28;;;18.21;57.98
1401;BME280;46518;48.842;8.926;2023-07-13T02:23:31;97093.66;;;18.23;57.40
1401;BME280;46518;48.842;8.926;2023-07-13T02:26:00;97094.72;;;18.22;57.77
1401;BME280;46518;48.842;8.926;2023-07-13T02:28:29;97102.91;;;18.39;57.17
1401;BME280;46518;48.842;8.926;2023-07-13T02:31:06;97110.13;;;18.39;57.32
1401;BME280;46518;48.842;8.926;2023-07-13T02:33:34;97114.84;;;18.42;56.91
1401;BME280;46518;48.842;8.926;2023-07-13T02:36:02;97113.88;;;18.51;56.91
1401;BME280;46518;48.842;8.926;2023-07-13T02:38:32;97112.41;;;18.45;56.68
1401;BME280;46518;48.842;8.926;2023-07-13T02:41:02;97117.53;;;18.42;56.60
1401;BME280;46518;48.842;8.926;2023-07-13T02:43:30;97112.88;;;18.33;56.68
1401;BME280;46518;48.842;8.926;2023-07-13T02:45:58;97124.63;;;18.19;56.97
1401;BME280;46518;48.842;8.926;2023-07-13T02:48:32;97123.53;;;18.20;57.58
1401;BME280;46518;48.842;8.926;2023-07-13T02:51:00;97125.16;;;18.35;57.33
1401;BME280;46518;48.842;8.926;2023-07-13T02:53:28;97105.38;;;18.22;57.27
1401;BME280;46518;48.842;8.926;2023-07-13T02:55:56;97127.50;;;18.36;57.43
1401;BME280;46518;48.842;8.926;2023-07-13T02:58:24;97126.63;;;18.41;56.80
1401;BME280;46518;48.842;8.926;2023-07-13T03:00:53;97124.34;;;18.48;56.64
1401;BME280;46518;48.842;8.926;2023-07-13T03:03:21;97130.34;;;18.26;56.59
1401;BME280;46518;48.842;8.926;2023-07-13T03:05:58;97129.16;;;18.18;57.36
1401;BME280;46518;48.842;8.926;2023-07-13T03:08:30;97107.53;;;18.06;57.72
1401;BME280;46518;48.842;8.926;2023-07-13T03:10:59;97116.41;;;18.01;58.78
1401;BME280;46518;48.842;8.926;2023-07-13T03:13:30;97129.63;;;18.06;58.50
1401;BME280;46518;48.842;8.926;2023-07-13T03:15:59;97141.06;;;18.07;59.01
1401;BME280;46518;48.842;8.926;2023-07-13T03:18:29;97138.53;;;18.16;58.54
1401;BME280;46518;48.842;8.926;2023-07-13T03:21:02;97138.53;;;18.29;57.60
1401;BME280;46518;48.842;8.926;2023-07-13T03:23:30;97135.19;;;18.24;57.61
1401;BME280;46518;48.842;8.926;2023-07-13T03:26:05;97137.16;;;18.32;57.62
1401;BME280;46518;48.842;8.926;2023-07-13T03:28:34;97139.16;;;18.40;57.38
1401;BME280;46518;48.842;8.926;2023-07-13T03:31:05;97143.59;;;18.45;57.44
1401;BME280;46518;48.842;8.926;2023-07-13T03:33:34;97144.28;;;18.50;57.00
1401;BME280;46518;48.842;8.926;2023-07-13T03:36:06;97153.19;;;18.60;57.31
1401;BME280;46518;48.842;8.926;2023-07-13T03:38:35;97157.91;;;18.63;57.31
1401;BME280;46518;48.842;8.926;2023-07-13T03:41:03;97159.38;;;18.69;56.97
1401;BME280;46518;48.842;8.926;2023-07-13T03:43:32;97159.59;;;18.72;57.01
1401;BME280;46518;48.842;8.926;2023-07-13T03:46:00;97156.88;;;18.78;57.18
1401;BME280;46518;48.842;8.926;2023-07-13T03:48:28;97173.94;;;18.77;57.37
1401;BME280;46518;48.842;8.926;2023-07-13T03:50:56;97179.56;;;18.75;57.43
1401;BME280;46518;48.842;8.926;2023-07-13T03:53:26;97173.72;;;18.73;56.96
1401;BME280;46518;48.842;8.926;2023-07-13T03:55:54;97178.06;;;18.69;57.57
1401;BME280;46518;48.842;8.926;2023-07-13T03:58:27;97177.88;;;18.65;56.99
1401;BME280;46518;48.842;8.926;2023-07-13T04:01:00;97187.25;;;18.63;56.63
1401;BME280;46518;48.842;8.926;2023-07-13T04:03:29;97184.56;;;18.63;56.62
1401;BME280;46518;48.842;8.926;2023-07-13T04:06:00;97179.44;;;18.66;56.63
1401;BME280;46518;48.842;8.926;2023-07-13T04:08:31;97181.81;;;18.68;55.75
1401;BME280;46518;48.842;8.926;2023-07-13T04:11:00;97187.31;;;18.71;55.97
1401;BME280;46518;48.842;8.926;2023-07-13T04:13:29;97194.81;;;18.69;56.94
1401;BME280;46518;48.842;8.926;2023-07-13T04:15:57;97175.47;;;18.64;57.05
1401;BME280;46518;48.842;8.926;2023-07-13T04:18:25;97173.00;;;18.53;57.11
1401;BME280;46518;48.842;8.926;2023-07-13T04:20:53;97193.06;;;18.65;57.62
1401;BME280;46518;48.842;8.926;2023-07-13T04:23:21;97185.66;;;18.62;58.54
1401;BME280;46518;48.842;8.926;2023-07-13T04:25:52;97194.25;;;18.59;58.10
1401;BME280;46518;48.842;8.926;2023-07-13T04:28:21;97180.69;;;18.41;58.27
1401;BME280;46518;48.842;8.926;2023-07-13T04:30:50;97159.84;;;18.29;58.47
1401;BME280;46518;48.842;8.926;2023-07-13T04:33:18;97198.75;;;18.44;59.12
1401;BME280;46518;48.842;8.926;2023-07-13T04:35:49;97197.56;;;18.37;58.96
1401;BME280;46518;48.842;8.926;2023-07-13T04:38:21;97191.81;;;18.29;58.73
1401;BME280;46518;48.842;8.926;2023-07-13T04:40:57;97193.09;;;18.32;58.22
1401;BME280;46518;48.842;8.926;2023-07-13T04:43:26;97192.81;;;18.33;58.01
1401;BME280;46518;48.842;8.926;2023-07-13T04:45:55;97195.19;;;18.35;59.13
1401;BME280;46518;48.842;8.926;2023-07-13T04:48:23;97205.53;;;18.23;60.18
1401;BME280;46518;48.842;8.926;2023-07-13T04:50:55;97194.81;;;17.95;61.36
1401;BME280;46518;48.842;8.926;2023-07-13T04:53:24;97203.56;;;17.96;62.89
1401;BME280;46518;48.842;8.926;2023-07-13T04:55:54;97207.25;;;18.00;63.35
1401;BME280;46518;48.842;8.926;2023-07-13T04:58:22;97209.00;;;18.04;63.12
1401;BME280;46518;48.842;8.926;2023-07-13T05:00:50;97211.91;;;18.08;62.90
1401;BME280;46518;48.842;8.926;2023-07-13T05:03:19;97209.44;;;18.11;62.02
1401;BME280;46518;48.842;8.926;2023-07-13T05:05:55;97211.44;;;18.20;62.89
1401;BME280;46518;48.842;8.926;2023-07-13T05:08:23;97212.94;;;18.26;61.68
1401;BME280;46518;48.842;8.926;2023-07-13T05:10:52;97214.22;;;18.28;62.02
1401;BME280;46518;48.842;8.926;2023-07-13T05:13:22;97209.78;;;18.24;61.44
1401;BME280;46518;48.842;8.926;2023-07-13T05:15:57;97208.63;;;18.30;61.41
1401;BME280;46518;48.842;8.926;2023-07-13T05:18:26;97225.81;;;18.38;60.49
1401;BME280;46518;48.842;8.926;2023-07-13T05:20:58;97222.25;;;18.42;60.83
1401;BME280;46518;48.842;8.926;2023-07-13T05:23:27;97223.25;;;18.46;60.05
1401;BME280;46518;48.842;8.926;2023-07-13T05:25:55;97215.94;;;18.52;59.65
1401;BME280;46518;48.842;8.926;2023-07-13T05:28:25;97213.78;;;18.54;60.47
1401;BME280;46518;48.842;8.926;2023-07-13T05:30:55;97218.44;;;18.62;60.35
1401;BME280;46518;48.842;8.926;2023-07-13T05:33:24;97217.25;;;18.68;59.86
1401;BME280;46518;48.842;8.926;2023-07-13T05:35:52;97225.75;;;18.70;60.34
1401;BME280;46518;48.842;8.926;2023-07-13T05:38:21;97222.31;;;18.70;59.99
1401;BME280;46518;48.842;8.926;2023-07-13T05:40:49;97217.75;;;18.70;60.53
1401;BME280;46518;48.842;8.926;2023-07-13T05:43:18;97223.28;;;18.74;61.14
1401;BME280;46518;48.842;8.926;2023-07-13T05:45:47;97216.59;;;18.77;60.69
1401;BME280;46518;48.842;8.926;2023-07-13T05:48:16;97203.53;;;18.61;61.23
1401;BME280;46518;48.842;8.926;2023-07-13T05:50:44;97227.25;;;18.77;60.83
1401;BME280;46518;48.842;8.926;2023-07-13T05:53:13;97228.44;;;18.84;61.09
1401;BME280;46518;48.842;8.926;2023-07-13T05:55:41;97234.38;;;18.81;61.02
1401;BME280;46518;48.842;8.926;2023-07-13T05:58:11;97232.50;;;18.95;60.55
1401;BME280;46518;48.842;8.926;2023-07-13T06:00:39;97234.69;;;18.93;59.99
1401;BME280;46518;48.842;8.926;2023-07-13T06:03:09;97234.19;;;19.05;58.95
1401;BME280;46518;48.842;8.926;2023-07-13T06:05:38;97232.88;;;19.16;57.56
1401;BME280;46518;48.842;8.926;2023-07-13T06:08:07;97238.34;;;19.25;56.96
1401;BME280;46518;48.842;8.926;2023-07-13T06:10:36;97239.69;;;19.36;56.27
1401;BME280;46518;48.842;8.926;2023-07-13T06:13:04;97239.91;;;19.40;55.36
1401;BME280;46518;48.842;8.926;2023-07-13T06:15:32;97250.25;;;19.42;55.36
1401;BME280;46518;48.842;8.926;2023-07-13T06:18:00;97250.03;;;19.52;55.72
1401;BME280;46518;48.842;8.926;2023-07-13T06:20:30;97254.00;;;19.54;55.21
1401;BME280;46518;48.842;8.926;2023-07-13T06:23:01;97241.25;;;19.51;56.80
1401;BME280;46518;48.842;8.926;2023-07-13T06:25:29;97254.19;;;19.58;56.20
1401;BME280;46518;48.842;8.926;2023-07-13T06:27:57;97263.38;;;19.66;56.11
1401;BME280;46518;48.842;8.926;2023-07-13T06:30:26;97257.44;;;19.69;54.89
1401;BME280;46518;48.842;8.926;2023-07-13T06:32:54;97264.16;;;19.66;53.19
1401;BME280;46518;48.842;8.926;2023-07-13T06:35:22;97268.63;;;19.71;54.71
1401;BME280;46518;48.842;8.926;2023-07-13T06:37:51;97269.19;;;19.81;51.73
1401;BME280;46518;48.842;8.926;2023-07-13T06:40:20;97268.38;;;19.95;53.44
1401;BME280;46518;48.842;8.926;2023-07-13T06:42:48;97267.34;;;20.04;54.06
1401;BME280;46518;48.842;8.926;2023-07-13T06:45:16;97274.16;;;20.11;52.58
1401;BME280;46518;48.842;8.926;2023-07-13T06:47:44;97282.53;;;19.95;49.53
1401;BME280;46518;48.842;8.926;2023-07-13T06:50:12;97290.59;;;20.04;51.26
1401;BME280;46518;48.842;8.926;2023-07-13T06:52:40;97285.25;;;20.04;52.59
1401;BME280;46518;48.842;8.926;2023-07-13T06:55:10;97288.16;;;20.16;54.46
1401;BME280;46518;48.842;8.926;2023-07-13T06:57:38;97287.75;;;20.23;55.60
1401;BME280;46518;48.842;8.926;2023-07-13T07:00:07;97281.00;;;20.25;53.76
1401;BME280;46518;48.842;8.926;2023-07-13T07:02:36;97275.06;;;20.29;53.84
1401;BME280;46518;48.842;8.926;2023-07-13T07:05:05;97292.06;;;20.33;54.65
1401;BME280;46518;48.842;8.926;2023-07-13T07:07:33;97286.06;;;20.27;51.80
1401;BME280;46518;48.842;8.926;2023-07-13T07:10:01;97279.00;;;20.31;51.89
1401;BME280;46518;48.842;8.926;2023-07-13T07:12:31;97282.38;;;20.37;50.86
1401;BME280;46518;48.842;8.926;2023-07-13T07:14:59;97267.69;;;20.34;52.27
1401;BME280;46518;48.842;8.926;2023-07-13T07:17:27;97292.34;;;20.54;52.58
1401;BME280;46518;48.842;8.926;2023-07-13T07:19:55;97296.03;;;20.58;51.37
1401;BME280;46518;48.842;8.926;2023-07-13T07:22:23;97294.16;;;20.58;50.95
1401;BME280;46518;48.842;8.926;2023-07-13T07:24:54;97301.69;;;20.56;51.60
1401;BME280;46518;48.842;8.926;2023-07-13T07:27:22;97301.63;;;20.70;51.21
1401;BME280;46518;48.842;8.926;2023-07-13T07:29:54;97297.41;;;20.78;51.30
1401;BME280;46518;48.842;8.926;2023-07-13T07:32:28;97297.56;;;20.81;50.09
1401;BME280;46518;48.842;8.926;2023-07-13T07:35:16;97290.75;;;20.98;50.69
1401;BME280;46518;48.842;8.926;2023-07-13T07:37:45;97287.84;;;20.85;49.22
1401;BME280;46518;48.842;8.926;2023-07-13T07:40:16;97290.91;;;21.01;49.81
1401;BME280;46518;48.842;8.926;2023-07-13T07:42:47;97292.03;;;21.09;49.91
1401;BME280;46518;48.842;8.926;2023-07-13T07:45:17;97293.16;;;21.17;49.33
1401;BME280;46518;48.842;8.926;2023-07-13T07:47:45;97296.13;;;21.06;44.84
1401;BME280;46518;48.842;8.926;2023-07-13T07:50:13;97289.28;;;20.92;42.68
1401;BME280;46518;48.842;8.926;2023-07-13T07:52:41;97286.22;;;20.76;43.00
1401;BME280;46518;48.842;8.926;2023-07-13T07:55:11;97301.06;;;20.82;43.84
1401;BME280;46518;48.842;8.926;2023-07-13T07:57:41;97290.31;;;21.13;44.37
1401;BME280;46518;48.842;8.926;2023-07-13T08:00:14;97293.78;;;21.14;43.52
1401;BME280;46518;48.842;8.926;2023-07-13T08:02:47;97292.50;;;21.42;43.68
1401;BME280;46518;48.842;8.926;2023-07-13T08:05:19;97306.00;;;21.37;42.05
1401;BME280;46518;48.842;8.926;2023-07-13T08:08:05;97297.09;;;21.42;42.41
1401;BME280;46518;48.842;8.926;2023-07-13T08:10:35;97300.78;;;21.32;42.23
1401;BME280;46518;48.842;8.926;2023-07-13T08:13:04;97305.78;;;21.65;42.60
1401;BME280;46518;48.842;8.926;2023-07-13T08:15:35;97303.75;;;21.62;43.01
1401;BME280;46518;48.842;8.926;2023-07-13T08:18:05;97304.81;;;21.52;40.68
1401;BME280;46518;48.842;8.926;2023-07-13T08:20:36;97298.84;;;21.55;40.80
1401;BME280;46518;48.842;8.926;2023-07-13T08:23:05;97299.47;;;21.52;41.34
1401;BME280;46518;48.842;8.926;2023-07-13T08:25:33;97306.03;;;21.46;41.23
1401;BME280;46518;48.842;8.926;2023-07-13T08:28:02;97312.84;;;21.61;41.17
1401;BME280;46518;48.842;8.926;2023-07-13T08:30:30;97300.91;;;21.67;40.95
1401;BME280;46518;48.842;8.926;2023-07-13T08:32:58;97299.81;;;21.94;41.38
1401;BME280;46518;48.842;8.926;2023-07-13T08:35:28;97301.09;;;22.14;41.85
1401;BME280;46518;48.842;8.926;2023-07-13T08:37:56;97302.34;;;21.90;38.93
1401;BME280;46518;48.842;8.926;2023-07-13T08:40:25;97300.94;;;21.84;39.49
1401;BME280;46518;48.842;8.926;2023-07-13T08:42:54;97304.25;;;22.16;39.89
1401;BME280;46518;48.842;8.926;2023-07-13T08:45:30;97302.19;;;21.95;39.37
1401;BME280;46518;48.842;8.926;2023-07-13T08:48:03;97303.00;;;22.31;40.72
1401;BME280;46518;48.842;8.926;2023-07-13T08:50:35;97302.22;;;22.30;40.68
1401;BME280;46518;48.842;8.926;2023-07-13T08:53:33;97309.94;;;22.14;41.49
1401;BME280;46518;48.842;8.926;2023-07-13T08:56:02;97308.53;;;22.17;40.51
1401;BME280;46518;48.842;8.926;2023-07-13T08:58:36;97298.28;;;22.28;40.66
1401;BME280;46518;48.842;8.926;2023-07-13T09:01:12;97307.41;;;22.53;40.35
1401;BME280;46518;48.842;8.926;2023-07-13T09:03:49;97302.31;;;22.77;40.28
1401;BME280;46518;48.842;8.926;2023-07-13T09:06:23;97299.97;;;22.67;38.58
1401;BME280;46518;48.842;8.926;2023-07-13T09:08:58;97307.25;;;22.49;38.71
1401;BME280;46518;48.842;8.926;2023-07-13T09:11:45;97312.16;;;22.30;38.61
1401;BME280;46518;48.842;8.926;2023-07-13T09:14:31;97308.69;;;22.38;38.57
1401;BME280;46518;48.842;8.926;2023-07-13T09:17:03;97310.56;;;22.29;38.85
1401;BME280;46518;48.842;8.926;2023-07-13T09:19:34;97309.16;;;22.31;39.01
1401;BME280;46518;48.842;8.926;2023-07-13T09:22:11;97308.66;;;22.55;39.63
1401;BME280;46518;48.842;8.926;2023-07-13T09:24:52;97305.13;;;22.90;38.94
1401;BME280;46518;48.842;8.926;2023-07-13T09:27:26;97315.94;;;22.55;37.79
1401;BME280;46518;48.842;8.926;2023-07-13T09:30:02;97313.88;;;22.43;38.30
1401;BME280;46518;48.842;8.926;2023-07-13T09:32:33;97306.78;;;22.38;39.31
1401;BME280;46518;48.842;8.926;2023-07-13T09:35:10;97308.44;;;22.78;37.99
1401;BME280;46518;48.842;8.926;2023-07-13T09:37:43;97314.78;;;22.73;39.38
1401;BME280;46518;48.842;8.926;2023-07-13T09:40:35;97301.00;;;22.83;38.81
1401;BME280;46518;48.842;8.926;2023-07-13T09:43:07;97301.81;;;22.75;38.58
1401;BME280;46518;48.842;8.926;2023-07-13T09:45:38;97289.94;;;22.94;37.94
1401;BME280;46518;48.842;8.926;2023-07-13T09:48:11;97298.59;;;23.08;36.96
1401;BME280;46518;48.842;8.926;2023-07-13T09:50:40;97285.00;;;23.13;37.71
1401;BME280;46518;48.842;8.926;2023-07-13T09:53:15;97286.00;;;23.00;36.79
1401;BME280;46518;48.842;8.926;2023-07-13T09:55:45;97290.53;;;23.08;37.08
1401;BME280;46518;48.842;8.926;2023-07-13T09:58:20;97303.19;;;23.08;38.36
1401;BME280;46518;48.842;8.926;2023-07-13T10:00:58;97301.47;;;23.03;37.45
1401;BME280;46518;48.842;8.926;2023-07-13T10:03:30;97290.97;;;22.72;38.33
1401;BME280;46518;48.842;8.926;2023-07-13T10:06:11;97296.94;;;22.69;38.77
1401;BME280;46518;48.842;8.926;2023-07-13T10:08:41;97298.31;;;22.83;39.86
1401;BME280;46518;48.842;8.926;2023-07-13T10:11:17;97292.97;;;23.31;39.85
1401;BME280;46518;48.842;8.926;2023-07-13T10:13:51;97287.28;;;23.32;37.74
1401;BME280;46518;48.842;8.926;2023-07-13T10:16:19;97277.53;;;23.48;37.27
1401;BME280;46518;48.842;8.926;2023-07-13T10:18:49;97282.03;;;23.36;37.74
1401;BME280;46518;48.842;8.926;2023-07-13T10:21:19;97294.47;;;23.49;39.30
1401;BME280;46518;48.842;8.926;2023-07-13T10:24:09;97289.28;;;23.44;37.58
1401;BME280;46518;48.842;8.926;2023-07-13T10:26:45;97295.75;;;23.43;39.08
1401;BME280;46518;48.842;8.926;2023-07-13T10:29:15;97302.56;;;23.40;36.45
1401;BME280;46518;48.842;8.926;2023-07-13T10:31:45;97294.16;;;23.12;37.69
1401;BME280;46518;48.842;8.926;2023-07-13T10:34:13;97288.72;;;23.30;39.60
1401;BME280;46518;48.842;8.926;2023-07-13T10:36:43;97297.97;;;23.41;37.82
1401;BME280;46518;48.842;8.926;2023-07-13T10:39:17;97302.16;;;23.30;36.97
1401;BME280;46518;48.842;8.926;2023-07-13T10:41:49;97298.31;;;23.39;37.81
1401;BME280;46518;48.842;8.926;2023-07-13T10:44:23;97306.00;;;23.71;37.82
1401;BME280;46518;48.842;8.926;2023-07-13T10:46:55;97294.47;;;23.70;37.17
1401;BME280;46518;48.842;8.926;2023-07-13T10:49:26;97301.38;;;23.59;37.47
1401;BME280;46518;48.842;8.926;2023-07-13T10:51:55;97303.97;;;23.67;37.84
1401;BME280;46518;48.842;8.926;2023-07-13T10:54:30;97305.22;;;23.49;36.58
1401;BME280;46518;48.842;8.926;2023-07-13T10:57:15;97298.06;;;23.53;37.08
1401;BME280;46518;48.842;8.926;2023-07-13T10:59:47;97305.47;;;23.86;38.27
1401;BME280;46518;48.842;8.926;2023-07-13T11:02:26;97296.91;;;23.63;36.73
1401;BME280;46518;48.842;8.926;2023-07-13T11:04:56;97288.63;;;23.47;36.06
1401;BME280;46518;48.842;8.926;2023-07-13T11:07:27;97285.75;;;23.52;38.21
1401;BME280;46518;48.842;8.926;2023-07-13T11:09:59;97275.97;;;23.77;36.50
1401;BME280;46518;48.842;8.926;2023-07-13T11:12:49;97275.13;;;23.85;35.25
1401;BME280;46518;48.842;8.926;2023-07-13T11:15:30;97283.31;;;23.89;34.51
1401;BME280;46518;48.842;8.926;2023-07-13T11:18:03;97270.97;;;23.88;33.96
1401;BME280;46518;48.842;8.926;2023-07-13T11:20:37;97269.16;;;23.80;34.25
1401;BME280;46518;48.842;8.926;2023-07-13T11:23:29;97273.59;;;23.76;33.47
1401;BME280;46518;48.842;8.926;2023-07-13T11:26:00;97269.28;;;23.83;34.44
1401;BME280;46518;48.842;8.926;2023-07-13T11:28:31;97272.63;;;24.01;36.09
1401;BME280;46518;48.842;8.926;2023-07-13T11:31:13;97264.63;;;23.93;33.98
1401;BME280;46518;48.842;8.926;2023-07-13T11:33:56;97264.38;;;23.85;34.32
1401;BME280;46518;48.842;8.926;2023-07-13T11:36:30;97259.97;;;24.02;35.53
1401;BME280;46518;48.842;8.926;2023-07-13T11:39:03;97263.75;;;24.22;34.55
1401;BME280;46518;48.842;8.926;2023-07-13T11:41:35;97264.81;;;24.75;35.79
1401;BME280;46518;48.842;8.926;2023-07-13T11:44:10;97262.72;;;25.05;34.39
1401;BME280;46518;48.842;8.926;2023-07-13T11:46:44;97262.81;;;24.84;31.62
1401;BME280;46518;48.842;8.926;2023-07-13T11:49:16;97266.84;;;24.45;31.81
1401;BME280;46518;48.842;8.926;2023-07-13T11:51:44;97272.91;;;24.21;32.40
1401;BME280;46518;48.842;8.926;2023-07-13T11:54:23;97269.13;;;24.22;32.04
1401;BME280;46518;48.842;8.926;2023-07-13T11:56:54;97260.72;;;24.23;33.71
1401;BME280;46518;48.842;8.926;2023-07-13T11:59:22;97265.91;;;24.49;34.60
1401;BME280;46518;48.842;8.926;2023-07-13T12:01:53;97260.66;;;24.32;31.77
1401;BME280;46518;48.842;8.926;2023-07-13T12:04:24;97255.53;;;24.18;31.60
1401;BME280;46518;48.842;8.926;2023-07-13T12:06:57;97270.44;;;24.16;33.18
1401;BME280;46518;48.842;8.926;2023-07-13T12:09:27;97272.03;;;24.17;31.94
1401;BME280;46518;48.842;8.926;2023-07-13T12:11:57;97281.25;;;24.28;32.65
1401;BME280;46518;48.842;8.926;2023-07-13T12:14:28;97261.41;;;23.99;32.18
1401;BME280;46518;48.842;8.926;2023-07-13T12:16:56;97265.78;;;24.25;33.34
1401;BME280;46518;48.842;8.926;2023-07-13T12:19:26;97266.09;;;24.23;33.77
1401;BME280;46518;48.842;8.926;2023-07-13T12:21:57;97265.91;;;24.28;32.60
1401;BME280;46518;48.842;8.926;2023-07-13T12:24:26;97266.91;;;24.24;32.82
1401;BME280;46518;48.842;8.926;2023-07-13T12:27:02;97272.81;;;24.17;32.24
1401;BME280;46518;48.842;8.926;2023-07-13T12:29:31;97256.81;;;24.00;32.60
1401;BME280;46518;48.842;8.926;2023-07-13T12:32:00;97270.25;;;24.00;32.47
1401;BME280;46518;48.842;8.926;2023-07-13T12:34:28;97258.72;;;23.99;33.72
1401;BME280;46518;48.842;8.926;2023-07-13T12:36:58;97256.31;;;24.19;32.64
1401;BME280;46518;48.842;8.926;2023-07-13T12:39:32;97258.31;;;24.09;33.16
1401;BME280;46518;48.842;8.926;2023-07-13T12:42:19;97265.00;;;24.24;33.22
1401;BME280;46518;48.842;8.926;2023-07-13T12:44:52;97258.66;;;24.41;32.38
1401;BME280;46518;48.842;8.926;2023-07-13T12:47:22;97273.66;;;24.63;33.41
1401;BME280;46518;48.842;8.926;2023-07-13T12:49:54;97260.44;;;24.70;31.72
1401;BME280;46518;48.842;8.926;2023-07-13T12:52:24;97264.94;;;24.66;32.19
1401;BME280;46518;48.842;8.926;2023-07-13T12:54:58;97270.53;;;24.73;33.08
1401;BME280;46518;48.842;8.926;2023-07-13T12:57:38;97259.44;;;24.75;31.96
1401;BME280;46518;48.842;8.926;2023-07-13T13:00:21;97266.41;;;24.88;30.94
1401;BME280;46518;48.842;8.926;2023-07-13T13:02:52;97255.75;;;24.80;32.17
1401;BME280;46518;48.842;8.926;2023-07-13T13:05:34;97261.44;;;24.78;32.12
1401;BME280;46518;48.842;8.926;2023-07-13T13:08:04;97261.22;;;24.83;31.67
1401;BME280;46518;48.842;8.926;2023-07-13T13:10:32;97267.28;;;24.80;32.32
1401;BME280;46518;48.842;8.926;2023-07-13T13:13:04;97267.47;;;24.63;32.38
1401;BME280;46518;48.842;8.926;2023-07-13T13:15:32;97255.63;;;24.64;32.15
1401;BME280;46518;48.842;8.926;2023-07-13T13:18:04;97259.38;;;24.50;32.08
1401;BME280;46518;48.842;8.926;2023-07-13T13:20:33;97268.50;;;24.70;31.79
1401;BME280;46518;48.842;8.926;2023-07-13T13:23:01;97260.13;;;24.84;32.89
1401;BME280;46518;48.842;8.926;2023-07-13T13:25:29;97256.00;;;25.11;32.58
1401;BME280;46518;48.842;8.926;2023-07-13T13:27:57;97267.81;;;25.19;31.18
1401;BME280;46518;48.842;8.926;2023-07-13T13:30:26;97257.09;;;25.10;31.33